LEBG

Details ICAO LEBG (RGS)
Name Burgos
Region Spain
Timezone Europe/Madrid (UTC+1.0)
Plans Departing 29
Arriving 27
Stats Elevation 2,961 ft / 903 m (AMSL)
Location 42.356895° -3.614221°
Runways 1
Magnetic Variation 0.788° W
Sunrise 2017-12-12 07:35:49 UTC / 2017-12-12 08:35:49 Local
Sunset 2017-12-12 16:43:25 UTC / 2017-12-12 17:43:25 Local
Advertisement - Login to hide

Runways

ID Width Length Bearing (true) Bearing (mag) Surface Threshold Offset Overrun Length
04 148 ft / 45 m 6,423 ft / 1,958 m 43.31° 44.10° Asphalt 0 ft / 0 m 0 ft / 0 m
22 148 ft / 45 m 6,423 ft / 1,958 m 223.32° 224.11° Asphalt 0 ft / 0 m 0 ft / 0 m

Map

Weather


0- 5 10 15 20 25 30 35+ Temperature / ° C

Clouds and Precipitation
Forecast for 2017-12-12 06:00 UTC. Updated 2 hours ago

Ground ~20,000 ft ~40,000 ft Winds

METAR

LEBG 120700Z 16002KT 9999 SCT060 M02/M02 Q1013

TAF

Not found

Frequencies

Tower 125.42 MHz AFIS
Approach 118.45 MHz GMC
Warning: Do not use this data for real-world aviation or navigation. No guarantee of current accuracy is given.